Time;durP1;ratioP1;P1;durP2;ratioP2;P2;SDS_P1;SDS_P2;PMS_P1;PMS_P2;Temp;Humidity;BMP_temperature;BMP_pressure;BME280_temperature;BME280_humidity;BME280_pressure;Samples;Min_cycle;Max_cycle;Signal;HPM_P1;HPM_P2
2023/07/23 00:01:11;;;;;;;3.92;3.03;;;;;;;21.72;53.66;94941.84;4952651;29;20201;-90
2023/07/23 00:03:50;;;;;;;4.13;3.15;;;;;;;21.72;53.65;94947.09;4959908;28;20227;-89
2023/07/23 00:06:17;;;;;;;2.83;2.63;;;;;;;21.61;54.13;94976.94;4966099;28;20209;-90
2023/07/23 00:08:46;;;;;;;3.20;2.90;;;;;;;21.67;53.88;94965.41;4971695;28;20789;-89
2023/07/23 00:11:15;;;;;;;3.88;3.22;;;;;;;21.72;54.30;94973.28;4971475;28;20204;-90
2023/07/23 00:13:43;;;;;;;3.65;2.95;;;;;;;21.72;54.42;94986.41;4958166;28;20727;-90
2023/07/23 00:16:11;;;;;;;3.63;3.10;;;;;;;21.69;54.64;94992.94;4951974;29;20597;-89
2023/07/23 00:18:55;;;;;;;3.92;3.00;;;;;;;21.67;54.88;94997.66;4959688;28;20211;-91
2023/07/23 00:21:21;;;;;;;3.22;2.92;;;;;;;21.59;55.33;95013.88;4967165;28;20591;-89
2023/07/23 00:26:38;;;;;;;5.53;3.00;;;;;;;21.56;55.37;95018.84;4958801;28;20204;-89
2023/07/23 00:29:05;;;;;;;3.50;3.20;;;;;;;21.50;55.38;95023.28;4966350;28;20646;-89
2023/07/23 00:31:37;;;;;;;3.70;3.13;;;;;;;21.52;55.72;95029.06;4971038;28;20235;-87
2023/07/23 00:34:07;;;;;;;3.10;2.80;;;;;;;21.54;55.57;95029.59;4968461;28;20206;-86
2023/07/23 00:36:33;;;;;;;3.67;3.38;;;;;;;21.55;55.57;95043.47;4971304;28;20204;-86
2023/07/23 00:39:00;;;;;;;4.75;3.20;;;;;;;21.52;55.90;95042.16;4971537;28;20907;-87
2023/07/23 00:41:27;;;;;;;4.63;2.80;;;;;;;21.51;55.64;95037.97;4971036;28;20686;-87
2023/07/23 00:43:57;;;;;;;5.43;3.15;;;;;;;21.48;55.92;95051.56;4954074;28;20216;-88
2023/07/23 00:46:28;;;;;;;3.85;3.53;;;;;;;21.43;56.49;95051.56;4954185;28;20263;-87
2023/07/23 00:49:01;;;;;;;3.17;2.88;;;;;;;21.36;56.71;95075.34;4967479;28;20204;-87
2023/07/23 00:51:35;;;;;;;3.38;3.08;;;;;;;21.30;57.04;95071.16;4965066;28;20559;-87
2023/07/23 00:54:03;;;;;;;3.45;3.15;;;;;;;21.34;56.49;95068.81;4965683;28;20330;-87
2023/07/23 00:56:38;;;;;;;3.28;2.97;;;;;;;21.33;56.86;95070.66;4971008;28;20310;-86
2023/07/23 00:59:05;;;;;;;3.25;2.95;;;;;;;21.31;57.00;95071.94;4962867;28;20220;-89
2023/07/23 01:01:36;;;;;;;3.90;3.15;;;;;;;21.29;57.40;95085.28;4951450;29;20268;-90
2023/07/23 01:04:03;;;;;;;3.53;3.10;;;;;;;21.23;57.47;95085.50;4952765;28;20217;-90
2023/07/23 01:06:45;;;;;;;3.22;2.80;;;;;;;21.25;57.13;95078.19;4967061;28;20666;-90
2023/07/23 01:09:27;;;;;;;3.80;3.10;;;;;;;21.27;57.38;95081.34;4970726;28;20215;-92
2023/07/23 01:11:57;;;;;;;3.33;3.03;;;;;;;21.25;57.51;95084.22;4968330;28;20208;-91
2023/07/23 01:14:24;;;;;;;3.90;2.95;;;;;;;21.20;57.95;95096.50;4951286;29;20298;-92
2023/07/23 01:16:53;;;;;;;3.20;2.90;;;;;;;21.20;57.70;95096.50;4951124;29;20280;-89
2023/07/23 01:19:45;;;;;;;3.47;3.17;;;;;;;21.18;58.04;95099.34;4951622;28;20251;-89
2023/07/23 01:22:16;;;;;;;3.50;3.10;;;;;;;21.22;57.69;95082.09;4952166;28;20606;-88
2023/07/23 01:24:42;;;;;;;3.65;3.35;;;;;;;21.20;57.80;95094.66;4965923;28;20204;-89
2023/07/23 01:27:17;;;;;;;3.20;2.90;;;;;;;21.22;57.90;95097.03;4970026;28;20208;-89
2023/07/23 01:29:49;;;;;;;3.42;3.13;;;;;;;21.20;57.70;95080.78;4956796;28;20831;-89
2023/07/23 01:32:29;;;;;;;3.20;2.90;;;;;;;21.16;57.98;95090.19;4950393;28;20299;-89
2023/07/23 01:35:00;;;;;;;5.03;2.97;;;;;;;21.17;57.82;95076.03;4950695;29;20200;-89
2023/07/23 01:37:28;;;;;;;3.47;2.88;;;;;;;21.11;58.26;95108.47;4950812;29;20243;-90
2023/07/23 01:40:02;;;;;;;2.88;2.67;;;;;;;21.13;57.76;95091.47;4964516;28;20216;-89
2023/07/23 01:42:36;;;;;;;3.80;3.38;;;;;;;21.07;58.33;95105.56;4968716;28;20227;-89
2023/07/23 01:47:52;;;;;;;3.50;3.17;;;;;;;21.08;57.96;95093.28;4954237;28;20312;-89
2023/07/23 01:50:19;;;;;;;2.97;2.60;;;;;;;21.08;57.58;95086.19;4950408;29;20205;-89
2023/07/23 01:55:27;;;;;;;3.58;3.28;;;;;;;20.97;58.43;95090.59;4957421;28;20263;-89
2023/07/23 01:57:59;;;;;;;5.30;2.97;;;;;;;20.98;58.45;95117.53;4969686;28;20218;-89
2023/07/23 02:00:25;;;;;;;2.90;2.70;;;;;;;20.98;58.29;95105.25;4951128;28;20205;-89
2023/07/23 02:02:54;;;;;;;2.95;2.70;;;;;;;20.97;58.53;95095.81;4949704;29;20224;-89
2023/07/23 02:05:22;;;;;;;3.40;3.10;;;;;;;20.96;58.25;95088.25;4950685;29;20200;-90
2023/07/23 02:07:52;;;;;;;3.05;2.80;;;;;;;20.93;58.55;95093.97;4950189;29;20208;-89
2023/07/23 02:10:20;;;;;;;3.10;2.80;;;;;;;20.86;58.57;95104.66;4950273;28;20212;-88
2023/07/23 02:12:48;;;;;;;3.80;2.90;;;;;;;20.84;58.74;95105.94;4963848;28;20279;-89
2023/07/23 02:15:18;;;;;;;3.20;2.90;;;;;;;20.83;58.65;95104.38;4965007;28;20218;-89
2023/07/23 02:17:47;;;;;;;4.25;3.20;;;;;;;20.79;58.83;95117.16;4953695;28;20263;-91
2023/07/23 02:20:16;;;;;;;3.13;2.90;;;;;;;20.74;59.30;95124.22;4958869;28;20332;-89
2023/07/23 02:22:49;;;;;;;3.10;2.88;;;;;;;20.82;58.96;95116.66;4952329;28;20303;-90
2023/07/23 02:25:26;;;;;;;3.38;3.08;;;;;;;20.71;59.36;95133.34;4950555;29;20658;-90
2023/07/23 02:28:00;;;;;;;3.15;2.85;;;;;;;20.69;59.83;95146.66;4961551;28;20204;-87
2023/07/23 02:30:30;;;;;;;3.55;3.25;;;;;;;20.72;59.38;95131.50;4969166;28;20236;-87
2023/07/23 02:32:57;;;;;;;3.35;3.05;;;;;;;20.76;59.10;95124.75;4960089;28;20232;-90
2023/07/23 02:35:31;;;;;;;2.83;2.63;;;;;;;20.75;59.23;95126.56;4950667;29;20575;-89
2023/07/23 02:37:57;;;;;;;3.33;3.03;;;;;;;20.74;59.01;95132.84;4949749;29;20201;-89
2023/07/23 02:40:35;;;;;;;3.40;3.10;;;;;;;20.72;59.25;95139.38;4950222;29;20205;-89
2023/07/23 02:43:11;;;;;;;3.55;2.95;;;;;;;20.70;59.15;95137.00;4952654;28;20242;-89
2023/07/23 02:45:49;;;;;;;2.85;2.65;;;;;;;20.71;59.56;95140.41;4969280;28;20215;-89
2023/07/23 02:48:30;;;;;;;2.92;2.63;;;;;;;20.65;59.49;95145.59;4950309;28;20530;-89
2023/07/23 02:51:08;;;;;;;2.92;2.72;;;;;;;20.59;59.81;95153.66;4949648;29;20196;-91
2023/07/23 02:53:36;;;;;;;3.85;2.90;;;;;;;20.60;59.35;95152.59;4949977;28;20240;-89
2023/07/23 02:56:07;;;;;;;3.17;2.88;;;;;;;20.60;59.81;95158.63;4949819;29;20695;-89
2023/07/23 02:58:40;;;;;;;3.40;3.10;;;;;;;20.62;59.56;95164.41;4965698;28;20197;-89
2023/07/23 03:01:09;;;;;;;3.47;3.17;;;;;;;20.66;59.85;95152.41;4968189;28;20204;-89
2023/07/23 03:03:38;;;;;;;3.55;3.00;;;;;;;20.67;59.43;95143.50;4954960;28;20235;-89
2023/07/23 03:06:07;;;;;;;3.75;3.00;;;;;;;20.61;59.59;95151.56;4949928;28;20205;-91
2023/07/23 03:08:33;;;;;;;2.90;2.70;;;;;;;20.59;59.85;95149.19;4955166;29;20349;-90
2023/07/23 03:11:00;;;;;;;3.08;2.83;;;;;;;20.58;59.33;95150.25;4962785;28;20194;-90
2023/07/23 03:13:28;;;;;;;3.85;2.97;;;;;;;20.57;59.72;95155.75;4970555;28;20693;-89
2023/07/23 03:15:55;;;;;;;3.05;2.80;;;;;;;20.55;59.99;95170.88;4960161;28;20296;-89
2023/07/23 03:18:28;;;;;;;2.92;2.63;;;;;;;20.50;59.90;95166.41;4973095;28;20302;-92
2023/07/23 03:20:55;;;;;;;3.72;3.42;;;;;;;20.51;59.79;95162.75;4972211;28;20235;-89
2023/07/23 03:23:21;;;;;;;2.97;2.70;;;;;;;20.56;59.91;95154.16;4971911;28;20725;-89
2023/07/23 03:25:48;;;;;;;3.97;3.13;;;;;;;20.59;59.24;95156.28;4972636;28;20199;-89
2023/07/23 03:28:14;;;;;;;3.25;2.95;;;;;;;20.55;59.74;95148.13;4972196;28;20700;-89
2023/07/23 03:30:44;;;;;;;4.30;3.10;;;;;;;20.56;59.79;95148.94;4969539;28;20197;-89
2023/07/23 03:33:11;;;;;;;3.15;2.78;;;;;;;20.55;59.62;95155.19;4960280;28;20240;-91
2023/07/23 03:35:40;;;;;;;3.38;3.08;;;;;;;20.53;59.98;95155.44;4972804;28;20212;-89
2023/07/23 03:38:07;;;;;;;4.28;3.00;;;;;;;20.54;59.48;95149.16;4970537;28;20204;-89
2023/07/23 03:40:38;;;;;;;3.70;3.20;;;;;;;20.52;59.72;95160.91;4952895;29;20667;-89
2023/07/23 03:43:06;;;;;;;4.00;3.30;;;;;;;20.54;59.79;95153.63;4953063;29;20221;-89
2023/07/23 03:45:32;;;;;;;3.20;2.90;;;;;;;20.55;59.76;95152.56;4954068;29;20205;-89
2023/07/23 03:48:00;;;;;;;3.40;3.10;;;;;;;20.51;59.87;95160.13;4967989;28;20555;-90
2023/07/23 03:50:27;;;;;;;3.40;3.10;;;;;;;20.53;59.79;95147.59;4972328;28;20240;-89
2023/07/23 03:52:54;;;;;;;3.20;2.90;;;;;;;20.47;60.20;95155.63;4964288;28;20216;-89
2023/07/23 03:55:22;;;;;;;3.88;3.10;;;;;;;20.44;60.56;95166.59;4952743;29;20212;-89
2023/07/23 03:57:48;;;;;;;3.17;2.88;;;;;;;20.39;60.64;95169.97;4953021;29;20201;-86
2023/07/23 04:00:15;;;;;;;3.33;3.03;;;;;;;20.38;60.67;95175.44;4952828;29;20582;-89
2023/07/23 04:02:42;;;;;;;5.22;2.95;;;;;;;20.32;61.19;95195.47;4952361;28;20220;-89
2023/07/23 04:05:10;;;;;;;4.38;2.97;;;;;;;20.34;60.99;95191.59;4966507;28;20208;-90
2023/07/23 04:07:37;;;;;;;6.93;3.00;;;;;;;20.39;60.88;95198.72;4958176;28;20213;-89
2023/07/23 04:10:04;;;;;;;3.25;3.00;;;;;;;20.40;60.94;95194.28;4952395;28;20212;-89
2023/07/23 04:12:33;;;;;;;3.13;2.67;;;;;;;20.43;60.56;95183.31;4953302;28;20322;-90
2023/07/23 04:15:02;;;;;;;3.33;3.03;;;;;;;20.46;60.31;95180.22;4972011;28;20239;-89
2023/07/23 04:17:29;;;;;;;3.50;3.20;;;;;;;20.49;60.41;95175.28;4971438;28;20208;-90
2023/07/23 04:19:55;;;;;;;3.58;2.58;;;;;;;20.49;60.53;95188.34;4970008;28;20259;-89
2023/07/23 04:22:23;;;;;;;4.85;3.03;;;;;;;20.52;60.29;95174.78;4964870;28;20224;-89
2023/07/23 04:24:50;;;;;;;3.38;2.92;;;;;;;20.55;60.36;95169.06;4952205;28;20197;-88
2023/07/23 04:27:20;;;;;;;2.97;2.75;;;;;;;20.53;60.49;95170.34;4962113;28;20228;-90
2023/07/23 04:29:47;;;;;;;3.20;2.90;;;;;;;20.56;60.29;95168.03;4959946;28;20212;-89
2023/07/23 04:32:16;;;;;;;3.38;3.00;;;;;;;20.58;60.28;95170.41;4956325;28;20277;-88
2023/07/23 04:34:43;;;;;;;3.33;2.85;;;;;;;20.58;60.43;95170.41;4971021;28;20220;-88
2023/07/23 04:37:11;;;;;;;2.88;2.67;;;;;;;20.63;60.02;95160.75;4969540;28;20704;-87
2023/07/23 04:39:39;;;;;;;3.25;2.60;;;;;;;20.61;60.13;95164.63;4954617;28;20288;-87
2023/07/23 04:42:05;;;;;;;3.45;2.97;;;;;;;20.65;60.02;95158.66;4952056;29;20235;-89
2023/07/23 04:44:32;;;;;;;4.85;3.05;;;;;;;20.74;59.95;95142.53;4961025;28;20207;-85
2023/07/23 04:46:58;;;;;;;2.90;2.70;;;;;;;20.79;59.47;95139.91;4970893;28;20204;-87
2023/07/23 04:49:25;;;;;;;3.17;2.88;;;;;;;20.86;59.22;95122.19;4971486;28;20208;-87
2023/07/23 04:51:51;;;;;;;3.08;2.78;;;;;;;20.87;59.01;95116.72;4963046;28;20299;-88
2023/07/23 04:54:17;;;;;;;3.30;3.00;;;;;;;20.81;59.06;95109.84;4962848;28;20235;-84
2023/07/23 04:56:45;;;;;;;2.85;2.65;;;;;;;20.88;58.71;95094.72;4971523;28;20208;-87
2023/07/23 04:59:12;;;;;;;3.95;3.00;;;;;;;20.90;58.66;95095.28;4962976;28;20248;-89
2023/07/23 05:01:38;;;;;;;5.38;2.75;;;;;;;20.94;58.41;95091.09;4962027;28;20201;-87
2023/07/23 05:04:05;;;;;;;3.97;2.90;;;;;;;20.99;58.62;95091.13;4960984;28;20308;-85
2023/07/23 05:06:31;;;;;;;3.08;2.88;;;;;;;21.06;58.55;95101.38;4960877;28;20211;-88
2023/07/23 05:08:57;;;;;;;3.40;3.10;;;;;;;21.10;58.83;95106.91;4959655;28;20368;-85
2023/07/23 05:11:24;;;;;;;3.72;2.83;;;;;;;21.14;58.81;95110.59;4954075;28;20216;-88
2023/07/23 05:13:51;;;;;;;3.08;2.88;;;;;;;21.21;58.46;95095.44;4959018;28;20601;-87
2023/07/23 05:16:18;;;;;;;3.05;2.72;;;;;;;21.25;58.19;95086.06;4960693;28;20215;-85
2023/07/23 05:18:44;;;;;;;5.53;3.05;;;;;;;21.28;58.07;95090.78;4967962;28;20196;-85
2023/07/23 05:21:11;;;;;;;3.20;2.80;;;;;;;21.28;58.26;95088.94;4970568;28;20216;-89
2023/07/23 05:23:37;;;;;;;3.28;2.92;;;;;;;21.31;58.06;95079.81;4957346;28;20213;-89
2023/07/23 05:26:04;;;;;;;4.80;2.95;;;;;;;21.34;57.63;95072.22;4959534;28;20682;-86
2023/07/23 05:28:30;;;;;;;3.03;2.60;;;;;;;21.32;57.78;95073.53;4962546;28;20203;-88
2023/07/23 05:31:01;;;;;;;3.67;2.88;;;;;;;21.37;57.76;95071.69;4959662;28;20216;-88
2023/07/23 05:33:30;;;;;;;2.97;2.70;;;;;;;21.44;57.76;95074.09;4950515;28;20237;-88
2023/07/23 05:35:56;;;;;;;3.55;3.05;;;;;;;21.49;57.81;95083.78;4950009;29;20280;-88
2023/07/23 05:38:25;;;;;;;2.80;2.60;;;;;;;21.57;57.59;95080.66;4950780;29;20205;-87
2023/07/23 05:40:56;;;;;;;2.97;2.78;;;;;;;21.66;57.35;95082.53;4956852;28;20701;-88
2023/07/23 05:43:22;;;;;;;3.13;2.83;;;;;;;21.64;57.25;95068.91;4966703;28;20224;-87
2023/07/23 05:45:48;;;;;;;3.97;2.97;;;;;;;21.73;57.00;95066.59;4950412;29;20213;-88
2023/07/23 05:48:16;;;;;;;4.72;2.70;;;;;;;21.85;57.03;95068.97;4950551;29;20209;-87
2023/07/23 05:50:42;;;;;;;3.75;2.78;;;;;;;21.83;56.51;95042.22;4950403;29;20205;-87
2023/07/23 05:53:09;;;;;;;4.60;2.90;;;;;;;21.98;56.50;95047.47;4960523;28;20231;-87
2023/07/23 05:55:35;;;;;;;3.38;2.67;;;;;;;22.13;56.40;95047.50;4951172;28;20228;-88
2023/07/23 05:58:02;;;;;;;4.03;2.83;;;;;;;22.18;56.01;95031.00;4962208;28;20577;-87
2023/07/23 06:00:28;;;;;;;3.15;2.90;;;;;;;22.19;55.87;95011.59;4969336;28;20216;-86
2023/07/23 06:02:55;;;;;;;2.95;2.70;;;;;;;22.27;55.46;94998.75;4964122;28;20220;-85
2023/07/23 06:05:23;;;;;;;3.15;2.83;;;;;;;22.37;55.09;94990.84;4959376;28;20196;-85
2023/07/23 06:07:49;;;;;;;2.80;2.60;;;;;;;22.50;55.33;94989.53;4969586;28;20211;-85
2023/07/23 06:10:16;;;;;;;4.53;2.83;;;;;;;22.52;55.08;94989.25;4969560;28;20708;-85
2023/07/23 06:12:42;;;;;;;4.38;2.80;;;;;;;22.53;55.09;95002.09;4966450;28;20648;-85
2023/07/23 06:15:10;;;;;;;2.88;2.67;;;;;;;22.57;54.83;94978.75;4966057;28;20220;-85
2023/07/23 06:17:36;;;;;;;3.55;3.05;;;;;;;22.52;55.01;94987.41;4969149;28;20224;-86
2023/07/23 06:20:03;;;;;;;3.78;2.65;;;;;;;22.51;54.60;94962.25;4969374;28;20301;-85
2023/07/23 06:22:40;;;;;;;2.80;2.60;;;;;;;22.53;54.75;94965.38;4962620;28;20598;-88
2023/07/23 06:25:09;;;;;;;3.10;2.90;;;;;;;22.67;54.43;94955.91;4949762;29;20239;-87
2023/07/23 06:27:36;;;;;;;3.75;2.90;;;;;;;22.69;53.88;94930.19;4949840;28;20252;-89
2023/07/23 06:30:15;;;;;;;2.85;2.63;;;;;;;22.79;53.66;94924.13;4963419;28;20200;-88
2023/07/23 06:32:56;;;;;;;6.10;2.65;;;;;;;22.98;53.97;94924.31;4964037;28;20263;-88
2023/07/23 06:35:25;;;;;;;2.95;2.75;;;;;;;23.02;54.24;94943.72;4968765;28;20365;-88
2023/07/23 06:37:53;;;;;;;3.10;2.80;;;;;;;23.01;53.06;94908.00;4969268;28;20208;-88
2023/07/23 06:40:19;;;;;;;3.15;2.80;;;;;;;23.15;53.15;94897.69;4968719;28;20204;-88
2023/07/23 06:42:46;;;;;;;2.92;2.72;;;;;;;23.20;52.87;94892.41;4962215;28;20224;-87
2023/07/23 06:45:13;;;;;;;3.28;2.97;;;;;;;23.19;52.84;94885.59;4958968;28;20212;-88
2023/07/23 06:47:41;;;;;;;3.15;2.85;;;;;;;23.14;52.56;94865.38;4941790;28;20248;-89
2023/07/23 06:50:08;;;;;;;3.08;2.78;;;;;;;23.22;52.50;94875.31;4956520;28;20208;-88
2023/07/23 06:52:37;;;;;;;3.03;2.72;;;;;;;23.36;52.79;94867.59;4958546;28;20238;-85
2023/07/23 06:55:06;;;;;;;2.83;2.63;;;;;;;23.50;52.22;94859.88;4958919;28;20221;-86
2023/07/23 06:57:32;;;;;;;3.17;2.88;;;;;;;23.45;51.75;94831.03;4957722;28;20208;-86
2023/07/23 07:00:06;;;;;;;3.08;2.78;;;;;;;23.45;51.62;94816.06;4956360;28;20201;-87
2023/07/23 07:02:35;;;;;;;2.78;2.58;;;;;;;23.48;51.41;94814.69;4958499;28;20223;-90
2023/07/23 07:05:05;;;;;;;2.80;2.60;;;;;;;23.50;50.93;94788.94;4953894;28;20288;-88
2023/07/23 07:07:31;;;;;;;2.80;2.60;;;;;;;23.54;50.52;94753.19;4957589;28;20201;-89
2023/07/23 07:09:59;;;;;;;3.75;2.97;;;;;;;23.68;50.80;94769.84;4955635;28;20205;-89
2023/07/23 07:12:26;;;;;;;3.45;2.50;;;;;;;23.78;50.25;94740.84;4955251;28;20229;-88
2023/07/23 07:14:53;;;;;;;2.60;2.40;;;;;;;23.87;49.31;94698.94;4951646;28;20224;-89
2023/07/23 07:17:19;;;;;;;2.97;2.67;;;;;;;23.95;48.50;94659.66;4961975;28;20218;-87
2023/07/23 07:19:46;;;;;;;2.95;2.72;;;;;;;24.01;48.56;94655.13;4962904;28;20573;-88
2023/07/23 07:22:12;;;;;;;3.95;2.88;;;;;;;24.02;48.10;94633.81;4952541;28;20307;-90
2023/07/23 07:24:39;;;;;;;3.10;2.65;;;;;;;24.08;48.11;94648.44;4956764;28;20566;-89
2023/07/23 07:27:30;;;;;;;4.20;2.67;;;;;;;24.20;48.52;94650.66;4955974;28;20209;-88
2023/07/23 07:29:57;;;;;;;2.67;2.47;;;;;;;24.22;47.88;94619.59;4953849;28;20211;-89
2023/07/23 07:32:23;;;;;;;3.70;3.38;;;;;;;24.32;47.89;94613.41;4963842;28;20785;-88
2023/07/23 07:34:51;;;;;;;3.50;3.20;;;;;;;24.49;48.24;94655.78;4948060;28;20247;-88
2023/07/23 07:37:17;;;;;;;3.58;2.60;;;;;;;24.56;46.86;94566.72;4946555;28;20208;-93
2023/07/23 07:39:44;;;;;;;3.00;2.70;;;;;;;24.67;45.55;94512.81;4949311;28;20205;-88
2023/07/23 07:42:10;;;;;;;2.65;2.45;;;;;;;24.82;45.72;94498.63;4955823;28;20263;-88
2023/07/23 07:44:40;;;;;;;2.80;2.60;;;;;;;24.93;45.34;94501.84;4956967;28;20690;-90
2023/07/23 07:47:06;;;;;;;2.90;2.67;;;;;;;25.09;45.61;94498.63;4956403;28;20204;-90
2023/07/23 07:49:33;;;;;;;3.67;2.70;;;;;;;25.21;45.95;94505.28;4961512;28;20208;-88
2023/07/23 07:51:59;;;;;;;2.70;2.50;;;;;;;25.32;44.60;94456.56;4952615;28;20232;-88
2023/07/23 07:54:26;;;;;;;2.78;2.58;;;;;;;25.45;44.26;94408.28;4950412;29;20220;-88
2023/07/23 07:56:57;;;;;;;3.67;2.50;;;;;;;25.47;43.34;94388.47;4953762;28;21034;-89
2023/07/23 07:59:27;;;;;;;2.80;2.60;;;;;;;25.55;43.28;94351.94;4953011;28;20214;-89
2023/07/23 08:01:55;;;;;;;2.42;2.22;;;;;;;25.63;43.34;94348.59;4951171;29;20219;-89
2023/07/23 08:04:27;;;;;;;3.25;2.20;;;;;;;25.74;42.86;94348.06;4955795;28;20204;-88
2023/07/23 08:06:54;;;;;;;2.65;2.45;;;;;;;25.87;42.90;94335.84;4970969;28;20207;-87
2023/07/23 08:09:23;;;;;;;2.95;2.75;;;;;;;25.96;43.01;94341.19;4969897;28;20212;-87
2023/07/23 08:11:53;;;;;;;4.68;2.60;;;;;;;26.03;42.03;94305.34;4957450;28;20205;-88
2023/07/23 08:14:20;;;;;;;3.08;2.63;;;;;;;26.15;42.50;94325.91;4953330;28;20211;-87
2023/07/23 08:16:49;;;;;;;2.60;2.40;;;;;;;26.26;42.25;94329.03;4967568;28;20709;-88
2023/07/23 08:19:18;;;;;;;2.15;2.05;;;;;;;26.23;39.91;94190.56;4970119;28;20235;-89
2023/07/23 08:21:45;;;;;;;2.90;2.60;;;;;;;26.46;40.73;94202.59;4963167;28;20209;-88
2023/07/23 08:24:34;;;;;;;2.92;2.65;;;;;;;26.64;40.01;94190.16;4967959;28;20271;-91
2023/07/23 08:27:12;;;;;;;2.13;2.03;;;;;;;26.81;38.60;94118.84;4873086;29;20400;-89
2023/07/23 08:29:44;;;;;;;2.45;2.20;;;;;;;27.01;37.79;94061.94;4946094;28;20240;-91
2023/07/23 08:32:20;;;;;;;3.63;2.40;;;;;;;27.12;37.72;94071.09;4966103;28;20252;-87
2023/07/23 08:34:49;;;;;;;2.60;2.40;;;;;;;27.09;37.48;94045.28;4967160;28;20300;-87
2023/07/23 08:37:16;;;;;;;2.33;2.13;;;;;;;27.04;36.46;93982.06;4971171;28;20208;-87
2023/07/23 08:39:46;;;;;;;2.53;2.33;;;;;;;27.18;36.49;93973.88;4971787;28;20655;-88
2023/07/23 08:42:43;;;;;;;2.33;2.13;;;;;;;27.43;37.82;94059.44;4967814;28;20258;-88
2023/07/23 08:45:27;;;;;;;2.28;2.08;;;;;;;27.26;36.64;93990.81;4952489;28;20260;-87
2023/07/23 08:50:56;;;;;;;2.60;2.40;;;;;;;27.02;36.83;93994.81;4954726;28;20252;-90
2023/07/23 08:53:23;;;;;;;2.45;2.25;;;;;;;27.31;36.56;93982.69;4931954;28;20268;-90
2023/07/23 08:55:52;;;;;;;2.42;2.22;;;;;;;27.46;36.55;93984.75;4961039;28;20223;-89
2023/07/23 08:58:20;;;;;;;2.40;2.20;;;;;;;27.56;36.00;93957.94;4957602;28;20204;-89
2023/07/23 09:00:48;;;;;;;2.85;2.45;;;;;;;27.72;36.52;93993.31;4968483;28;20204;-90
2023/07/23 09:03:20;;;;;;;2.20;2.00;;;;;;;27.76;35.88;93964.34;4957005;28;20216;-90
2023/07/23 09:06:12;;;;;;;2.65;2.45;;;;;;;27.89;36.18;93973.13;4954394;28;20205;-90
2023/07/23 09:09:25;;;;;;;3.72;2.67;;;;;;;28.18;36.92;94012.69;4949823;29;20204;-90
2023/07/23 09:14:25;;;;;;;3.30;2.60;;;;;;;28.67;35.47;93942.09;5065341;23;20515;-89
2023/07/23 09:20:57;;;;;;;4.38;3.50;;;;;;;28.79;34.49;93861.88;4930917;29;20794;-90
2023/07/23 09:32:42;;;;;;;2.92;2.70;;;;;;;28.75;32.81;93778.88;4853213;29;20280;-90
2023/07/23 09:35:43;;;;;;;2.92;2.72;;;;;;;28.93;32.75;93758.22;4855576;29;20234;-91
2023/07/23 09:38:52;;;;;;;2.78;2.58;;;;;;;29.33;32.87;93782.03;4910499;29;20197;-90
2023/07/23 09:41:42;;;;;;;3.13;2.83;;;;;;;29.34;32.29;93736.63;4910866;29;20217;-90
2023/07/23 09:52:38;;;;;;;2.95;2.50;;;;;;;29.24;32.68;93742.44;4947208;28;20622;-90
2023/07/23 09:55:06;;;;;;;3.55;3.00;;;;;;;29.33;32.37;93735.09;4950894;29;20232;-90
2023/07/23 09:57:35;;;;;;;3.28;2.97;;;;;;;29.59;33.50;93785.03;4950759;29;20202;-91
2023/07/23 10:00:03;;;;;;;3.22;2.80;;;;;;;29.69;31.78;93747.38;4951329;29;20216;-90
2023/07/23 10:02:33;;;;;;;3.25;2.95;;;;;;;30.07;32.54;93762.75;4950476;28;20232;-91
2023/07/23 10:05:04;;;;;;;3.22;3.03;;;;;;;30.20;32.01;93713.00;4937992;29;20210;-90
2023/07/23 10:07:31;;;;;;;3.08;2.67;;;;;;;30.25;30.54;93643.66;4945648;29;20201;-90
2023/07/23 10:10:26;;;;;;;2.95;2.75;;;;;;;30.00;31.25;93658.31;4950529;29;20220;-91
2023/07/23 10:12:54;;;;;;;3.72;3.10;;;;;;;29.96;30.87;93657.44;4950570;29;20224;-90
2023/07/23 10:15:26;;;;;;;4.75;4.35;;;;;;;29.99;31.05;93684.06;4950232;28;20248;-91
2023/07/23 10:17:55;;;;;;;4.03;3.63;;;;;;;30.13;31.30;93691.59;4950717;29;20205;-90
2023/07/23 10:20:35;;;;;;;3.58;3.25;;;;;;;30.11;30.79;93651.34;4950799;29;20197;-91
2023/07/23 10:23:05;;;;;;;4.00;2.85;;;;;;;29.90;32.18;93732.00;4949071;29;20221;-91
2023/07/23 10:28:35;;;;;;;5.80;3.70;;;;;;;30.29;30.17;93611.88;4949333;29;20240;-91
2023/07/23 10:31:27;;;;;;;4.50;3.65;;;;;;;29.70;30.68;93610.22;4950399;29;20205;-91
2023/07/23 10:34:25;;;;;;;4.20;3.70;;;;;;;29.59;31.33;93651.66;4950334;29;20299;-90
2023/07/23 10:37:10;;;;;;;3.60;3.30;;;;;;;29.47;32.34;93716.13;4950350;29;20255;-90
2023/07/23 10:39:39;;;;;;;3.88;3.58;;;;;;;29.31;32.54;93717.97;4949258;29;20547;-89
2023/07/23 10:42:11;;;;;;;3.90;3.60;;;;;;;29.41;31.91;93691.78;4950287;29;20212;-90
2023/07/23 10:44:41;;;;;;;3.97;3.58;;;;;;;29.69;31.93;93720.09;4941511;29;20213;-91
2023/07/23 10:47:32;;;;;;;3.70;3.40;;;;;;;29.44;31.21;93658.50;4950768;29;20577;-90
2023/07/23 10:50:12;;;;;;;4.03;3.63;;;;;;;29.33;31.59;93652.88;4950019;29;20255;-90
2023/07/23 10:52:53;;;;;;;3.92;3.63;;;;;;;29.56;31.07;93647.78;4950000;28;20255;-89
2023/07/23 10:55:46;;;;;;;4.97;4.15;;;;;;;29.44;30.78;93616.06;4948356;29;20217;-90
2023/07/23 10:58:14;;;;;;;4.53;4.10;;;;;;;29.18;31.46;93651.78;4946464;29;20595;-89
2023/07/23 11:00:44;;;;;;;4.75;3.80;;;;;;;29.33;31.99;93681.28;4931326;29;20261;-89
2023/07/23 11:03:12;;;;;;;5.78;4.40;;;;;;;29.68;32.19;93699.97;4943316;28;20252;-90
2023/07/23 11:05:40;;;;;;;4.50;4.10;;;;;;;30.12;32.03;93704.09;4949899;29;20205;-91
2023/07/23 11:08:16;;;;;;;4.22;3.85;;;;;;;30.32;31.17;93664.31;4950303;29;20212;-90
2023/07/23 16:06:02;;;;;;;9.57;8.68;;;;;;;28.51;33.24;93685.13;4966905;28;20223;-90
2023/07/23 16:08:40;;;;;;;;;;;;;;;;;;;;;
2023/07/23 16:11:10;;;;;;;9.98;8.88;;;;;;;28.48;33.47;93712.28;4968816;28;20677;-89
2023/07/23 16:13:38;;;;;;;8.98;8.07;;;;;;;28.44;33.88;93706.13;4957073;28;20228;-89
2023/07/23 16:16:05;;;;;;;9.77;8.18;;;;;;;28.40;33.42;93694.66;4953778;29;20232;-89
2023/07/23 16:18:32;;;;;;;8.60;7.80;;;;;;;28.35;34.30;93712.63;4950688;29;20212;-90
2023/07/23 16:21:41;;;;;;;12.60;11.40;;;;;;;28.53;33.53;93717.34;4953617;29;20212;-90
2023/07/23 16:24:16;;;;;;;10.10;9.10;;;;;;;28.56;34.06;93717.78;4943535;29;20235;-91
2023/07/23 16:36:12;;;;;;;;;;;;;;;;;;;;;
2023/07/23 16:42:08;;;;;;;;;;;;;;;;;;;;;
2023/07/23 16:44:51;;;;;;;;;;;;;;;;;;;;;
2023/07/23 16:47:33;;;;;;;7.45;6.75;;;;;;;28.44;34.71;93785.56;4882908;29;20218;-90
2023/07/23 16:50:10;;;;;;;8.18;7.38;;;;;;;28.40;35.87;93811.16;4888940;29;20294;-91
2023/07/23 16:53:00;;;;;;;8.02;6.75;;;;;;;28.36;35.22;93796.25;4890345;29;20222;-88
2023/07/23 16:55:31;;;;;;;7.63;6.93;;;;;;;28.35;36.23;93829.13;4932586;29;20755;-89
2023/07/23 17:01:33;;;;;;;7.43;6.38;;;;;;;28.27;35.73;93833.44;4873699;29;20245;-89
2023/07/23 17:04:27;;;;;;;8.90;8.00;;;;;;;28.20;35.92;93835.84;4933747;29;20588;-91
2023/07/23 17:06:56;;;;;;;13.15;11.95;;;;;;;28.16;36.39;93856.09;4950989;29;20205;-88
2023/07/23 17:09:37;;;;;;;7.65;6.93;;;;;;;28.13;35.87;93832.94;4951685;29;20275;-88
2023/07/23 17:12:06;;;;;;;7.60;6.65;;;;;;;28.17;35.56;93834.59;4949343;28;20620;-87
2023/07/23 17:14:55;;;;;;;7.32;6.57;;;;;;;28.16;35.71;93842.88;4951894;29;20240;-89
2023/07/23 17:17:21;;;;;;;7.47;6.78;;;;;;;28.24;35.74;93828.03;4948498;29;20312;-90
2023/07/23 17:19:48;;;;;;;6.78;6.07;;;;;;;28.25;35.83;93832.22;4949793;29;20205;-88
2023/07/23 17:22:14;;;;;;;7.55;6.20;;;;;;;28.22;36.11;93835.53;4951814;28;20193;-88
2023/07/23 17:24:42;;;;;;;7.03;6.40;;;;;;;28.16;35.79;93837.56;4946291;28;20205;-89
2023/07/23 17:27:18;;;;;;;6.82;6.22;;;;;;;28.18;36.11;93838.03;4947803;29;20215;-87
2023/07/23 17:29:49;;;;;;;7.05;6.35;;;;;;;28.17;36.58;93866.34;4949688;29;20196;-90
2023/07/23 17:32:15;;;;;;;9.70;6.32;;;;;;;28.21;36.22;93861.22;4941069;29;20217;-88
2023/07/23 17:34:42;;;;;;;7.57;6.75;;;;;;;28.17;36.57;93865.59;4941318;29;20201;-86
2023/07/23 17:37:08;;;;;;;7.75;7.05;;;;;;;28.20;36.46;93870.25;4943380;29;20810;-85
2023/07/23 17:39:37;;;;;;;6.93;6.30;;;;;;;28.23;35.99;93866.19;4944809;29;20217;-88
2023/07/23 17:42:06;;;;;;;6.63;6.03;;;;;;;28.21;36.78;93878.97;4945562;29;20264;-88
2023/07/23 17:44:34;;;;;;;6.95;5.93;;;;;;;28.21;36.31;93885.03;4942338;29;20197;-88
2023/07/23 17:47:03;;;;;;;7.95;6.13;;;;;;;28.23;36.79;93904.00;4945454;29;20654;-89